createdAt,value
2023-01-03T00:00:24.208Z,21.38
2023-01-03T00:02:51.167Z,16.85
2023-01-03T00:05:18.446Z,19.35
2023-01-03T00:07:45.318Z,15.75
2023-01-03T00:10:12.116Z,16.55
2023-01-03T00:12:38.985Z,17.88
2023-01-03T00:15:06.267Z,17.10
2023-01-03T00:17:33.499Z,17.88
2023-01-03T00:20:00.560Z,14.90
2023-01-03T00:22:32.038Z,15.15
2023-01-03T00:24:59.008Z,17.15
2023-01-03T00:27:27.075Z,20.35
2023-01-03T00:29:54.438Z,22.77
2023-01-03T00:32:21.364Z,21.67
2023-01-03T00:34:48.208Z,26.80
2023-01-03T00:37:15.889Z,23.67
2023-01-03T00:39:43.840Z,27.17
2023-01-03T00:42:11.034Z,25.02
2023-01-03T00:44:38.188Z,31.35
2023-01-03T00:47:05.211Z,30.67
2023-01-03T00:49:32.475Z,25.90
2023-01-03T00:51:59.339Z,37.47
2023-01-03T00:54:26.738Z,34.30
2023-01-03T00:56:53.954Z,37.67
2023-01-03T00:59:21.911Z,37.38
2023-01-03T01:01:52.966Z,37.28
2023-01-03T01:04:31.239Z,35.85
2023-01-03T01:07:03.916Z,32.17
2023-01-03T01:09:33.327Z,35.58
2023-01-03T01:12:00.295Z,31.30
2023-01-03T01:14:29.280Z,32.22
2023-01-03T01:16:59.477Z,32.47
2023-01-03T01:19:32.451Z,22.80
2023-01-03T01:22:00.477Z,21.30
2023-01-03T01:24:27.497Z,17.08
2023-01-03T01:26:56.149Z,21.60
2023-01-03T01:29:23.183Z,22.88
2023-01-03T01:31:50.407Z,24.20
2023-01-03T01:34:18.013Z,22.73
2023-01-03T01:36:46.172Z,19.50
2023-01-03T01:39:14.655Z,19.73
2023-01-03T01:42:00.716Z,19.13
2023-01-03T01:45:02.318Z,25.20
2023-01-03T01:47:55.385Z,26.83
2023-01-03T01:50:28.177Z,28.15
2023-01-03T01:53:03.356Z,26.05
2023-01-03T01:55:41.069Z,26.83
2023-01-03T01:58:09.500Z,21.60
2023-01-03T02:00:37.610Z,23.20
2023-01-03T02:03:05.059Z,24.60
2023-01-03T02:05:35.063Z,24.25
2023-01-03T02:08:03.529Z,29.58
2023-01-03T02:11:02.750Z,26.10
2023-01-03T02:14:07.787Z,24.73
2023-01-03T02:16:56.395Z,25.75
2023-01-03T02:20:00.908Z,25.80
2023-01-03T02:23:05.221Z,28.27
2023-01-03T02:25:44.355Z,31.88
2023-01-03T02:28:23.179Z,24.98
2023-01-03T02:31:03.565Z,27.85
2023-01-03T02:33:41.603Z,26.73
2023-01-03T02:36:38.514Z,28.42
2023-01-03T02:39:40.980Z,16.92
2023-01-03T02:42:36.636Z,12.75
2023-01-03T02:45:06.406Z,13.63
2023-01-03T02:47:45.862Z,16.67
2023-01-03T02:50:15.536Z,13.25
2023-01-03T02:52:45.728Z,13.30
2023-01-03T02:55:39.987Z,14.38
2023-01-03T02:58:11.422Z,12.30
2023-01-03T03:00:48.591Z,13.68
2023-01-03T03:03:19.712Z,9.68
2023-01-03T03:05:52.988Z,9.38
2023-01-03T03:08:20.212Z,12.52
2023-01-03T03:11:06.297Z,11.30
2023-01-03T03:13:50.312Z,15.88
2023-01-03T03:16:48.201Z,18.13
2023-01-03T03:19:50.813Z,18.13
2023-01-03T03:22:48.889Z,17.98
2023-01-03T03:25:29.922Z,17.90
2023-01-03T03:28:21.956Z,17.58
2023-01-03T03:31:00.740Z,18.27
2023-01-03T03:33:31.263Z,15.18
2023-01-03T03:36:37.579Z,18.80
2023-01-03T03:39:06.241Z,16.15
2023-01-03T03:41:58.806Z,18.80
2023-01-03T03:44:54.570Z,18.00
2023-01-03T03:47:40.557Z,19.33
2023-01-03T03:50:22.520Z,21.77
2023-01-03T03:52:53.010Z,16.08
2023-01-03T03:55:30.481Z,18.77
2023-01-03T03:58:07.754Z,16.10
2023-01-03T04:00:38.533Z,18.77
2023-01-03T04:03:09.286Z,16.35
2023-01-03T04:05:49.293Z,13.55
2023-01-03T04:08:16.435Z,11.05
2023-01-03T04:10:44.208Z,14.20
2023-01-03T04:13:11.170Z,19.38
2023-01-03T04:15:38.012Z,17.95
2023-01-03T04:18:04.879Z,17.63
2023-01-03T04:20:31.690Z,17.75
2023-01-03T04:22:58.619Z,18.00
2023-01-03T04:25:25.875Z,18.17
2023-01-03T04:27:52.644Z,18.17
2023-01-03T04:30:20.059Z,17.50
2023-01-03T04:32:46.870Z,17.88
2023-01-03T04:35:13.645Z,23.40
2023-01-03T04:37:40.451Z,19.40
2023-01-03T04:40:07.693Z,21.67
2023-01-03T04:42:53.429Z,22.48
2023-01-03T04:45:20.249Z,21.17
2023-01-03T04:47:47.205Z,22.15
2023-01-03T04:50:14.244Z,18.65
2023-01-03T04:52:41.073Z,20.17
2023-01-03T04:55:08.301Z,12.48
2023-01-03T04:57:36.382Z,12.10
2023-01-03T05:00:04.813Z,12.27
2023-01-03T05:02:31.633Z,10.40
2023-01-03T05:04:58.977Z,12.23
2023-01-03T05:07:28.535Z,15.45
2023-01-03T05:09:55.347Z,17.63
2023-01-03T05:12:22.367Z,17.55
2023-01-03T05:14:49.150Z,14.30
2023-01-03T05:17:18.981Z,12.07
2023-01-03T05:20:05.659Z,9.55
2023-01-03T05:22:51.506Z,7.30
2023-01-03T05:25:37.556Z,8.60
2023-01-03T05:28:04.824Z,7.35
2023-01-03T05:30:31.689Z,9.82
2023-01-03T05:32:58.535Z,6.40
2023-01-03T05:35:25.810Z,8.75
2023-01-03T05:37:55.681Z,8.63
2023-01-03T05:40:22.451Z,5.85
2023-01-03T05:42:49.538Z,7.05
2023-01-03T05:45:16.509Z,8.20
2023-01-03T05:47:43.501Z,12.93
2023-01-03T05:50:10.745Z,8.13
2023-01-03T05:52:38.050Z,5.97
2023-01-03T05:55:05.727Z,8.07
2023-01-03T05:57:35.674Z,8.77
2023-01-03T06:00:04.718Z,6.57
2023-01-03T06:02:31.550Z,5.20
2023-01-03T06:04:58.354Z,7.53
2023-01-03T06:07:25.274Z,6.35
2023-01-03T06:09:52.095Z,14.20
2023-01-03T06:12:18.923Z,22.80
2023-01-03T06:14:45.715Z,10.10
2023-01-03T06:17:30.908Z,11.43
2023-01-03T06:19:57.732Z,18.30
2023-01-03T06:22:24.538Z,23.48
2023-01-03T06:24:51.744Z,18.75
2023-01-03T06:27:18.598Z,31.50
2023-01-03T06:29:45.402Z,37.60
2023-01-03T06:32:12.170Z,30.33
2023-01-03T06:34:39.411Z,24.95
2023-01-03T06:37:06.566Z,27.48
2023-01-03T06:39:33.590Z,26.13
2023-01-03T06:42:20.723Z,29.58
2023-01-03T06:45:07.554Z,36.55
2023-01-03T06:48:00.416Z,31.67
2023-01-03T06:50:46.203Z,24.92
2023-01-03T06:53:15.952Z,29.55
2023-01-03T06:55:44.452Z,38.63
2023-01-03T06:58:13.292Z,28.10
2023-01-03T07:00:42.939Z,30.67
2023-01-03T07:03:11.602Z,34.65
2023-01-03T07:05:38.993Z,27.05
2023-01-03T07:08:05.912Z,34.30
2023-01-03T07:10:33.624Z,19.80
2023-01-03T07:13:20.278Z,21.85
2023-01-03T07:15:47.319Z,33.35
2023-01-03T07:18:14.714Z,21.67
2023-01-03T07:20:45.326Z,24.20
2023-01-03T07:23:13.748Z,19.23
2023-01-03T07:25:41.981Z,20.77
2023-01-03T07:28:11.498Z,18.77
2023-01-03T07:30:40.887Z,16.73
2023-01-03T07:33:10.044Z,17.35
2023-01-03T07:35:37.468Z,19.50
2023-01-03T07:38:05.321Z,14.77
2023-01-03T07:40:32.992Z,15.10
2023-01-03T07:43:18.819Z,10.13
2023-01-03T07:45:47.071Z,10.35
2023-01-03T07:48:15.184Z,8.63
2023-01-03T07:50:42.487Z,5.95
2023-01-03T07:53:09.800Z,5.80
2023-01-03T07:55:37.880Z,6.88
2023-01-03T07:58:04.895Z,24.90
2023-01-03T08:00:32.204Z,24.48
2023-01-03T08:02:59.585Z,20.40
2023-01-03T08:05:26.592Z,19.27
2023-01-03T08:07:56.023Z,14.45
2023-01-03T08:10:42.143Z,19.30
2023-01-03T08:13:18.942Z,19.45
2023-01-03T08:15:57.775Z,22.23
2023-01-03T08:18:29.193Z,13.57
2023-01-03T08:20:57.335Z,7.47
2023-01-03T08:23:25.128Z,19.73
2023-01-03T08:25:52.780Z,12.50
2023-01-03T08:28:19.976Z,8.15
2023-01-03T08:30:49.578Z,19.80
2023-01-03T08:38:41.763Z,10.98
2023-01-03T08:41:10.519Z,10.27
2023-01-03T08:43:41.304Z,10.02
2023-01-03T08:46:11.573Z,11.80
2023-01-03T08:54:11.769Z,17.42
2023-01-03T08:56:40.191Z,15.25
2023-01-03T09:02:00.683Z,19.77
2023-01-03T09:07:44.940Z,17.10
2023-01-03T09:10:11.996Z,14.18
2023-01-03T09:18:00.209Z,14.68
2023-01-03T09:20:59.188Z,14.43
2023-01-03T09:26:15.377Z,10.00
2023-01-03T09:32:16.214Z,6.90
2023-01-03T09:44:12.036Z,4.28
2023-01-03T09:46:40.081Z,4.32
2023-01-03T09:49:08.084Z,5.40
2023-01-03T09:54:46.518Z,7.97
2023-01-03T09:57:39.480Z,4.85
2023-01-03T10:00:47.114Z,4.15
2023-01-03T10:03:51.597Z,3.95
2023-01-03T10:12:08.869Z,5.22
2023-01-03T10:15:25.331Z,4.38
2023-01-03T10:23:24.067Z,4.30
2023-01-03T10:25:52.482Z,4.35
2023-01-03T10:28:24.282Z,5.40
2023-01-03T10:31:18.519Z,5.53
2023-01-03T10:33:48.054Z,4.35
2023-01-03T10:36:17.391Z,5.22
2023-01-03T10:38:52.007Z,5.70
2023-01-03T10:41:41.592Z,3.30
2023-01-03T10:44:27.888Z,3.45
2023-01-03T10:47:01.544Z,6.07
2023-01-03T10:49:31.812Z,3.30
2023-01-03T10:52:37.353Z,3.28
2023-01-03T10:55:13.277Z,4.80
2023-01-03T10:57:49.020Z,2.10
2023-01-03T11:00:33.367Z,4.47
2023-01-03T11:03:12.495Z,3.25
2023-01-03T11:05:42.091Z,3.33
2023-01-03T11:08:35.583Z,5.90
2023-01-03T11:11:03.586Z,2.65
2023-01-03T11:13:41.914Z,3.72
2023-01-03T11:16:19.788Z,5.63
2023-01-03T11:19:03.099Z,3.30
2023-01-03T11:21:45.980Z,5.30
2023-01-03T11:24:33.583Z,4.40
2023-01-03T11:27:18.968Z,3.90
2023-01-03T11:30:27.423Z,3.88
2023-01-03T11:33:29.106Z,4.05
2023-01-03T11:35:56.880Z,2.20
2023-01-03T11:38:52.640Z,2.70
2023-01-03T11:41:42.280Z,2.30
2023-01-03T11:44:28.549Z,3.40
2023-01-03T11:47:14.759Z,3.67
2023-01-03T11:50:19.821Z,7.50
2023-01-03T11:53:18.044Z,3.22
2023-01-03T11:56:18.918Z,2.17
2023-01-03T11:59:26.380Z,3.17
2023-01-03T12:02:16.887Z,3.55
2023-01-03T12:04:56.277Z,2.40
2023-01-03T12:07:48.035Z,3.72
2023-01-03T12:10:24.777Z,4.43
2023-01-03T12:13:00.400Z,3.38
2023-01-03T12:15:40.402Z,4.43
2023-01-03T12:18:16.839Z,2.42
2023-01-03T12:20:56.056Z,1.50
2023-01-03T12:23:48.927Z,3.78
2023-01-03T12:26:17.359Z,3.50
2023-01-03T12:29:01.226Z,1.95
2023-01-03T12:31:34.247Z,2.60
2023-01-03T12:34:37.745Z,7.35
2023-01-03T12:37:18.666Z,4.97
2023-01-03T12:39:49.293Z,4.22
2023-01-03T12:42:39.962Z,4.03
2023-01-03T12:45:18.744Z,5.38
2023-01-03T12:48:01.104Z,3.63
2023-01-03T12:50:34.830Z,2.47
2023-01-03T12:53:14.424Z,1.92
2023-01-03T12:55:45.773Z,3.08
2023-01-03T12:58:39.248Z,3.60
2023-01-03T13:01:15.779Z,3.83
2023-01-03T13:03:50.170Z,4.43
2023-01-03T13:06:22.380Z,6.03
2023-01-03T13:08:55.372Z,4.90
2023-01-03T13:11:35.739Z,4.10
2023-01-03T13:14:22.297Z,4.43
2023-01-03T13:16:51.423Z,4.40
2023-01-03T13:19:23.875Z,8.13
2023-01-03T13:22:01.451Z,7.28
2023-01-03T13:24:51.281Z,4.60
2023-01-03T13:27:18.599Z,5.35
2023-01-03T13:29:57.424Z,4.82
2023-01-03T13:32:26.172Z,4.97
2023-01-03T13:34:59.187Z,9.82
2023-01-03T13:37:46.129Z,8.32
2023-01-03T13:43:19.020Z,6.05
2023-01-03T13:45:45.799Z,6.28
2023-01-03T13:48:21.961Z,6.25
2023-01-03T13:51:05.975Z,5.25
2023-01-03T13:53:39.546Z,6.90
2023-01-03T13:56:28.359Z,6.72
2023-01-03T13:59:02.300Z,6.72
2023-01-03T14:02:03.841Z,5.47
2023-01-03T14:04:45.748Z,6.35
2023-01-03T14:07:51.313Z,6.85
2023-01-03T14:10:33.347Z,10.15
2023-01-03T14:13:39.228Z,8.00
2023-01-03T14:16:24.471Z,6.05
2023-01-03T14:19:02.258Z,10.65
2023-01-03T14:21:46.552Z,7.32
2023-01-03T14:24:24.406Z,7.85
2023-01-03T14:26:52.235Z,7.80
2023-01-03T14:29:25.844Z,7.85
2023-01-03T14:31:55.980Z,8.65
2023-01-03T14:34:35.713Z,8.27
2023-01-03T14:37:06.003Z,9.77
2023-01-03T14:42:04.958Z,13.63
2023-01-03T14:44:34.127Z,11.43
2023-01-03T14:47:05.179Z,9.32
2023-01-03T14:49:48.442Z,15.02
2023-01-03T14:52:28.847Z,12.90
2023-01-03T14:55:03.747Z,10.65
2023-01-03T14:57:31.557Z,11.27
2023-01-03T15:00:00.523Z,14.05
2023-01-03T15:02:38.670Z,29.05
2023-01-03T15:05:26.678Z,50.00
2023-01-03T15:07:53.968Z,34.15
2023-01-03T15:10:36.688Z,38.47
2023-01-03T15:13:05.156Z,44.85
2023-01-03T15:15:39.092Z,39.95
2023-01-03T15:18:09.779Z,52.35
2023-01-03T15:20:43.727Z,67.63
2023-01-03T15:23:41.155Z,47.95
2023-01-03T15:26:18.831Z,51.65
2023-01-03T15:28:56.414Z,45.42
2023-01-03T15:31:34.570Z,59.53
2023-01-03T15:34:12.986Z,71.70
2023-01-03T15:36:40.991Z,61.25
2023-01-03T15:39:20.610Z,47.83
2023-01-03T15:44:55.019Z,56.58
2023-01-03T15:47:26.443Z,64.00
2023-01-03T15:49:57.584Z,68.85
2023-01-03T15:52:25.319Z,100.13
2023-01-03T15:54:52.330Z,63.75
2023-01-03T15:57:32.617Z,58.88
2023-01-03T16:00:04.180Z,63.20
2023-01-03T16:02:32.055Z,59.13
2023-01-03T16:04:59.075Z,52.95
2023-01-03T16:07:30.719Z,59.05
2023-01-03T16:09:58.191Z,45.20
2023-01-03T16:12:36.124Z,54.20
2023-01-03T16:15:06.285Z,44.38
2023-01-03T16:17:36.946Z,48.30
2023-01-03T16:20:04.218Z,51.97
2023-01-03T16:22:35.980Z,56.00
2023-01-03T16:25:05.488Z,50.03
2023-01-03T16:27:35.660Z,56.20
2023-01-03T16:30:02.866Z,51.22
2023-01-03T16:32:30.894Z,49.17
2023-01-03T16:35:04.973Z,50.92
2023-01-03T16:37:32.064Z,56.83
2023-01-03T16:39:59.147Z,46.72
2023-01-03T16:42:29.373Z,38.65
2023-01-03T16:44:57.206Z,44.00
2023-01-03T16:47:32.361Z,50.47
2023-01-03T16:50:19.865Z,80.93
2023-01-03T16:52:56.148Z,53.55
2023-01-03T16:55:35.537Z,73.70
2023-01-03T16:58:03.875Z,58.33
2023-01-03T17:00:43.298Z,59.92
2023-01-03T17:03:16.272Z,55.90
2023-01-03T17:05:47.039Z,106.90
2023-01-03T17:08:43.132Z,102.60
2023-01-03T17:11:23.016Z,118.90
2023-01-03T17:14:23.408Z,82.10
2023-01-03T17:16:53.873Z,50.22
2023-01-03T17:22:20.766Z,60.60
2023-01-03T17:24:50.134Z,69.32
2023-01-03T17:27:29.349Z,63.65
2023-01-03T17:30:06.977Z,75.57
2023-01-03T17:32:34.524Z,69.45
2023-01-03T17:35:03.742Z,78.47
2023-01-03T17:37:45.393Z,59.58
2023-01-03T17:40:32.897Z,71.60
2023-01-03T17:43:00.806Z,66.20
2023-01-03T17:45:46.665Z,63.25
2023-01-03T17:48:32.493Z,58.17
2023-01-03T17:51:01.647Z,53.17
2023-01-03T17:53:29.541Z,60.15
2023-01-03T17:55:56.541Z,77.25
2023-01-03T17:58:36.187Z,91.35
2023-01-03T18:01:05.802Z,60.08
2023-01-03T18:03:32.995Z,69.43
2023-01-03T18:06:05.393Z,75.88
2023-01-03T18:08:32.859Z,70.65
2023-01-03T18:10:59.965Z,73.78
2023-01-03T18:13:32.243Z,55.25
2023-01-03T18:15:59.821Z,72.72
2023-01-03T18:18:28.466Z,56.35
2023-01-03T18:20:56.579Z,61.30
2023-01-03T18:23:36.239Z,63.45
2023-01-03T18:26:07.361Z,57.30
2023-01-03T18:28:34.417Z,75.18
2023-01-03T18:31:01.815Z,63.63
2023-01-03T18:33:28.721Z,61.28
2023-01-03T18:35:56.046Z,54.40
2023-01-03T18:38:26.061Z,56.42
2023-01-03T18:40:57.441Z,59.35
2023-01-03T18:43:29.623Z,60.97
2023-01-03T18:45:56.535Z,52.33
2023-01-03T18:48:23.456Z,57.28
2023-01-03T18:50:58.344Z,64.07
2023-01-03T18:53:29.248Z,64.45
2023-01-03T18:55:56.476Z,78.15
2023-01-03T18:58:37.034Z,72.32
2023-01-03T19:01:05.854Z,71.30
2023-01-03T19:03:34.874Z,54.90
2023-01-03T19:06:02.959Z,46.03
2023-01-03T19:08:35.461Z,55.28
2023-01-03T19:11:13.805Z,91.90
2023-01-03T19:13:50.573Z,131.68
2023-01-03T19:16:29.458Z,92.85
2023-01-03T19:18:56.884Z,105.53
2023-01-03T19:21:26.270Z,113.47
2023-01-03T19:24:17.179Z,106.47
2023-01-03T19:26:54.877Z,112.07
2023-01-03T19:29:24.868Z,94.70
2023-01-03T19:31:56.366Z,78.78
2023-01-03T19:34:26.175Z,76.55
2023-01-03T19:36:53.637Z,70.82
2023-01-03T19:39:25.882Z,69.82
2023-01-03T19:42:17.000Z,69.30
2023-01-03T19:44:44.612Z,63.25
2023-01-03T19:47:20.592Z,70.30
2023-01-03T19:49:50.634Z,83.65
2023-01-03T19:52:18.007Z,90.22
2023-01-03T19:54:45.252Z,73.13
2023-01-03T19:57:27.924Z,84.63
2023-01-03T19:59:58.610Z,97.20
2023-01-03T20:02:39.804Z,92.47
2023-01-03T20:05:34.933Z,89.43
2023-01-03T20:08:12.429Z,114.82
2023-01-03T20:10:41.551Z,87.55
2023-01-03T20:13:31.251Z,85.82
2023-01-03T20:16:04.213Z,115.15
2023-01-03T20:18:37.099Z,104.40
2023-01-03T20:21:22.505Z,81.65
2023-01-03T20:24:01.815Z,133.38
2023-01-03T20:26:31.474Z,126.97
2023-01-03T20:28:59.221Z,122.25
2023-01-03T20:31:27.110Z,122.38
2023-01-03T20:33:54.059Z,86.35
2023-01-03T20:36:32.897Z,107.15
2023-01-03T20:39:21.328Z,74.18
2023-01-03T20:41:48.599Z,81.80
2023-01-03T20:44:15.360Z,98.32
2023-01-03T20:46:42.864Z,99.75
2023-01-03T20:49:24.678Z,105.93
2023-01-03T20:51:52.562Z,95.45
2023-01-03T20:54:20.065Z,107.80
2023-01-03T20:56:47.404Z,110.40
2023-01-03T20:59:19.379Z,101.25
2023-01-03T21:01:50.459Z,85.47
2023-01-03T21:04:17.856Z,102.97
2023-01-03T21:06:45.525Z,96.88
2023-01-03T21:09:14.139Z,94.68
2023-01-03T21:11:41.119Z,111.47
2023-01-03T21:14:08.801Z,108.97
2023-01-03T21:16:48.572Z,102.40
2023-01-03T21:19:19.043Z,88.50
2023-01-03T21:21:49.237Z,91.30
2023-01-03T21:24:18.209Z,80.78
2023-01-03T21:26:45.115Z,87.50
2023-01-03T21:29:12.356Z,77.75
2023-01-03T21:31:42.219Z,78.07
2023-01-03T21:34:19.279Z,79.82
2023-01-03T21:36:46.532Z,88.93
2023-01-03T21:39:16.747Z,85.38
2023-01-03T21:42:02.520Z,87.20
2023-01-03T21:44:29.825Z,94.07
2023-01-03T21:46:56.671Z,70.85
2023-01-03T21:49:23.922Z,78.55
2023-01-03T21:51:50.830Z,74.95
2023-01-03T21:54:18.357Z,72.05
2023-01-03T21:56:46.275Z,77.10
2023-01-03T21:59:18.028Z,69.43
2023-01-03T22:02:06.691Z,79.53
2023-01-03T22:04:35.033Z,82.32
2023-01-03T22:07:02.538Z,89.65
2023-01-03T22:09:49.424Z,75.20
2023-01-03T22:12:17.672Z,87.38
2023-01-03T22:14:48.991Z,77.18
2023-01-03T22:17:18.924Z,85.55
2023-01-03T22:19:45.761Z,100.60
2023-01-03T22:22:13.087Z,102.90
2023-01-03T22:24:40.191Z,104.45
2023-01-03T22:27:07.374Z,116.28
2023-01-03T22:29:34.416Z,81.35
2023-01-03T22:32:02.097Z,83.28
2023-01-03T22:34:29.623Z,86.15
2023-01-03T22:36:56.875Z,72.18
2023-01-03T22:39:23.844Z,81.47
2023-01-03T22:41:53.132Z,78.78
2023-01-03T22:44:19.933Z,86.05
2023-01-03T22:46:46.735Z,84.10
2023-01-03T22:49:16.995Z,65.28
2023-01-03T22:51:44.306Z,77.95
2023-01-03T22:54:12.755Z,75.90
2023-01-03T22:56:39.662Z,71.10
2023-01-03T22:59:06.556Z,73.35
2023-01-03T23:01:34.232Z,77.75
2023-01-03T23:04:01.373Z,77.57
2023-01-03T23:06:29.958Z,85.25
2023-01-03T23:08:57.620Z,82.10
2023-01-03T23:11:44.847Z,84.80
2023-01-03T23:14:20.263Z,83.38
2023-01-03T23:16:48.538Z,72.60
2023-01-03T23:19:17.794Z,85.70
2023-01-03T23:21:47.258Z,84.57
2023-01-03T23:24:16.978Z,94.05
2023-01-03T23:26:44.229Z,73.35
2023-01-03T23:29:11.928Z,78.70
2023-01-03T23:31:39.382Z,70.95
2023-01-03T23:34:06.635Z,84.20
2023-01-03T23:36:33.548Z,78.85
2023-01-03T23:39:00.666Z,78.05
2023-01-03T23:41:27.443Z,69.75
2023-01-03T23:43:54.823Z,70.57
2023-01-03T23:46:23.938Z,66.88
2023-01-03T23:48:58.024Z,66.43
2023-01-03T23:51:25.701Z,57.15
2023-01-03T23:53:53.812Z,56.53
2023-01-03T23:56:23.827Z,55.58
2023-01-03T23:58:51.752Z,63.10
